createdAt,value
2023-02-22T00:48:27.554Z,9.680978
2023-02-22T00:49:27.543Z,9.681064
2023-02-22T00:50:27.540Z,9.681064
2023-02-22T00:51:27.572Z,9.681275
2023-02-22T00:52:27.530Z,9.681330
2023-02-22T00:53:27.522Z,9.681280
2023-02-22T00:54:27.525Z,9.680984
2023-02-22T00:55:27.545Z,9.680984
2023-02-22T00:56:27.514Z,9.680984
2023-02-22T00:57:27.502Z,9.680984
2023-02-22T00:58:27.481Z,9.680984
2023-02-22T00:59:27.491Z,9.680984
2023-02-22T01:00:27.489Z,9.680984
2023-02-22T01:01:27.565Z,9.680984
2023-02-22T01:02:27.564Z,9.680984
2023-02-22T01:03:27.526Z,9.680984
2023-02-22T01:04:27.456Z,9.680984
2023-02-22T01:05:27.453Z,9.679164
2023-02-22T01:06:27.445Z,9.679164
2023-02-22T01:07:27.459Z,9.679164
2023-02-22T01:08:27.430Z,9.680546
2023-02-22T01:09:27.409Z,9.680546
2023-02-22T01:10:27.446Z,9.680546
2023-02-22T01:11:27.444Z,9.680546
2023-02-22T01:12:27.397Z,9.680546
2023-02-22T01:13:27.394Z,9.680546
2023-02-22T01:14:27.390Z,9.680546
2023-02-22T01:15:27.373Z,9.680546
2023-02-22T01:16:27.410Z,9.680546
2023-02-22T01:17:27.365Z,9.680546
2023-02-22T01:18:27.396Z,9.680546
2023-02-22T01:19:27.359Z,9.680546
2023-02-22T01:20:27.397Z,9.680546
2023-02-22T01:21:27.338Z,9.680546
2023-02-22T01:22:27.335Z,9.680546
2023-02-22T01:23:27.330Z,9.680546
2023-02-22T01:24:27.323Z,9.680546
2023-02-22T01:25:27.331Z,9.680546
2023-02-22T01:26:27.343Z,9.680546
2023-02-22T01:27:27.302Z,9.680546
2023-02-22T01:28:27.326Z,9.680546
2023-02-22T01:29:27.304Z,9.680546
2023-02-22T01:30:27.351Z,9.680546
2023-02-22T01:31:27.316Z,9.680546
2023-02-22T01:32:27.284Z,9.680546
2023-02-22T01:33:27.265Z,9.680546
2023-02-22T01:34:27.295Z,9.680546
2023-02-22T01:35:27.267Z,9.680546
2023-02-22T01:36:27.236Z,9.680546
2023-02-22T01:37:27.232Z,9.680546
2023-02-22T01:38:27.233Z,9.680546
2023-02-22T01:39:27.266Z,9.680546
2023-02-22T01:40:27.242Z,9.680546
2023-02-22T01:41:27.219Z,9.680546
2023-02-22T01:42:27.220Z,9.680546
2023-02-22T01:43:27.200Z,9.680546
2023-02-22T01:44:27.213Z,9.680546
2023-02-22T01:45:27.211Z,9.680546
2023-02-22T01:46:27.291Z,9.680546
2023-02-22T01:47:27.180Z,9.680546
2023-02-22T01:48:27.176Z,9.680546
2023-02-22T01:49:27.171Z,9.681006
2023-02-22T01:50:27.162Z,9.681006
2023-02-22T01:51:27.173Z,9.681145
2023-02-22T01:52:27.137Z,9.681540
2023-02-22T01:53:27.149Z,9.681422
2023-02-22T01:54:27.135Z,9.680976
2023-02-22T01:55:27.126Z,9.681205
2023-02-22T01:56:27.106Z,9.681135
2023-02-22T01:57:27.134Z,9.681235
2023-02-22T01:58:27.100Z,9.681299
2023-02-22T01:59:27.097Z,9.681355
2023-02-22T02:00:27.083Z,9.681673
2023-02-22T02:01:27.137Z,9.680960
2023-02-22T02:02:27.119Z,9.681031
2023-02-22T02:03:27.060Z,9.681109
2023-02-22T02:04:27.074Z,9.681379
2023-02-22T02:05:27.064Z,9.681213
2023-02-22T02:06:27.079Z,9.681565
2023-02-22T02:07:27.061Z,9.681166
2023-02-22T02:08:27.066Z,9.681370
2023-02-22T02:09:27.083Z,9.681117
2023-02-22T02:10:27.045Z,9.681239
2023-02-22T02:11:27.029Z,9.681002
2023-02-22T02:12:27.061Z,9.681095
2023-02-22T02:13:27.009Z,9.681205
2023-02-22T02:14:27.009Z,9.681531
2023-02-22T02:15:26.990Z,9.680949
2023-02-22T02:16:27.057Z,9.681190
2023-02-22T02:17:26.997Z,9.681352
2023-02-22T02:18:26.999Z,9.681586
2023-02-22T02:19:26.957Z,9.681423
2023-02-22T02:20:26.953Z,9.681178
2023-02-22T02:21:26.988Z,9.681357
2023-02-22T02:22:26.955Z,9.680967
2023-02-22T02:23:26.972Z,9.681734
2023-02-22T02:24:26.964Z,9.681365
2023-02-22T02:25:26.941Z,9.681212
2023-02-22T02:26:26.992Z,9.681130
2023-02-22T02:27:26.941Z,9.681191
2023-02-22T02:28:26.949Z,9.681116
2023-02-22T02:29:26.941Z,9.681021
2023-02-22T02:30:26.988Z,9.681061
2023-02-22T02:31:26.959Z,9.681137
2023-02-22T02:32:26.929Z,9.681162
2023-02-22T02:33:26.879Z,9.681226
2023-02-22T02:34:26.928Z,9.680961
2023-02-22T02:35:26.896Z,9.680982
2023-02-22T02:36:26.880Z,9.681320
2023-02-22T02:37:26.878Z,9.681143
2023-02-22T02:38:26.923Z,9.681152
2023-02-22T02:39:26.894Z,9.681173
2023-02-22T02:40:26.909Z,9.681121
2023-02-22T02:41:26.843Z,9.681056
2023-02-22T02:42:26.841Z,9.680867
2023-02-22T02:43:26.880Z,9.680914
2023-02-22T02:44:26.834Z,9.681084
2023-02-22T02:45:26.807Z,9.681162
2023-02-22T02:46:26.806Z,9.680784
2023-02-22T02:47:26.850Z,9.680993
2023-02-22T02:48:26.798Z,9.681163
2023-02-22T02:49:26.814Z,9.681109
2023-02-22T02:50:26.777Z,9.681117
2023-02-22T02:51:26.782Z,9.681046
2023-02-22T02:52:26.819Z,9.680836
2023-02-22T02:53:26.765Z,9.681181
2023-02-22T02:54:26.760Z,9.681194
2023-02-22T02:55:26.739Z,9.680973
2023-02-22T02:56:26.748Z,9.681177
2023-02-22T02:57:26.745Z,9.680941
2023-02-22T02:58:26.744Z,9.681281
2023-02-22T02:59:26.734Z,9.681092
2023-02-22T03:00:26.725Z,9.681043
2023-02-22T03:01:26.741Z,9.681004
2023-02-22T03:02:26.742Z,9.680896
2023-02-22T03:03:26.702Z,9.680814
2023-02-22T03:04:26.707Z,9.680898
2023-02-22T03:05:26.710Z,9.680977
2023-02-22T03:06:26.689Z,9.680804
2023-02-22T03:07:26.708Z,9.680664
2023-02-22T03:08:26.673Z,9.680610
2023-02-22T03:09:26.673Z,9.680919
2023-02-22T03:10:26.678Z,9.680967
2023-02-22T03:11:26.673Z,9.681165
2023-02-22T03:12:26.657Z,9.681096
2023-02-22T03:13:26.628Z,9.681024
2023-02-22T03:14:26.658Z,9.680891
2023-02-22T03:15:26.633Z,9.681077
2023-02-22T03:16:26.694Z,9.681146
2023-02-22T03:17:26.643Z,9.681016
2023-02-22T03:18:26.625Z,9.680607
2023-02-22T03:19:26.627Z,9.680575
2023-02-22T03:20:26.596Z,9.680742
2023-02-22T03:21:26.597Z,9.681339
2023-02-22T03:22:26.603Z,9.681396
2023-02-22T03:23:26.625Z,9.681052
2023-02-22T03:24:26.599Z,9.680805
2023-02-22T03:25:26.578Z,9.680938
2023-02-22T03:26:26.574Z,9.681328
2023-02-22T03:27:26.548Z,9.681126
2023-02-22T03:28:26.564Z,9.681122
2023-02-22T03:29:26.614Z,9.681129
2023-02-22T03:30:26.570Z,9.680600
2023-02-22T03:31:26.593Z,9.680548
2023-02-22T03:32:26.556Z,9.680558
2023-02-22T03:33:26.520Z,9.680752
2023-02-22T03:34:26.509Z,9.680693
2023-02-22T03:35:26.528Z,9.681583
2023-02-22T03:36:26.567Z,9.681317
2023-02-22T03:37:26.538Z,9.681065
2023-02-22T03:38:26.488Z,9.681381
2023-02-22T03:39:26.480Z,9.681724
2023-02-22T03:40:26.497Z,9.681402
2023-02-22T03:41:26.487Z,9.681657
2023-02-22T03:42:26.536Z,9.681258
2023-02-22T03:43:26.492Z,9.681211
2023-02-22T03:44:26.464Z,9.681211
2023-02-22T03:45:26.465Z,9.681817
2023-02-22T03:46:26.495Z,9.681385
2023-02-22T03:47:26.547Z,9.681129
2023-02-22T03:48:26.426Z,9.680905
2023-02-22T03:49:26.420Z,9.679676
2023-02-22T03:50:26.424Z,9.679676
2023-02-22T03:51:26.422Z,9.679676
2023-02-22T03:52:26.432Z,9.679676
2023-02-22T03:53:26.423Z,9.681510
2023-02-22T03:54:26.401Z,9.680923
2023-02-22T03:55:26.385Z,9.680519
2023-02-22T03:56:26.389Z,9.680543
2023-02-22T03:57:26.420Z,9.681643
2023-02-22T03:58:26.393Z,9.681886
2023-02-22T03:59:26.357Z,9.682309
2023-02-22T04:00:26.355Z,9.681477
2023-02-22T04:01:26.352Z,9.681418
2023-02-22T04:02:26.375Z,9.681804
2023-02-22T04:03:26.343Z,9.681378
2023-02-22T04:04:26.369Z,9.681620
2023-02-22T04:05:26.335Z,9.681239
2023-02-22T04:06:26.309Z,9.681382
2023-02-22T04:07:26.325Z,9.680989
2023-02-22T04:08:26.332Z,9.681173
2023-02-22T04:09:26.319Z,9.681067
2023-02-22T04:10:26.317Z,9.681084
2023-02-22T04:11:26.287Z,9.680833
2023-02-22T04:12:26.273Z,9.681095
2023-02-22T04:13:26.280Z,9.681273
2023-02-22T04:14:28.169Z,9.681409
2023-02-22T04:15:26.262Z,9.681608
2023-02-22T04:16:26.279Z,9.681306
2023-02-22T04:17:26.332Z,9.681029
2023-02-22T04:18:26.327Z,9.680866
2023-02-22T04:19:26.252Z,9.681129
2023-02-22T04:20:26.282Z,9.681095
2023-02-22T04:21:26.261Z,9.681224
2023-02-22T04:22:26.283Z,9.681138
2023-02-22T04:23:26.253Z,9.681065
2023-02-22T04:24:26.226Z,9.680926
2023-02-22T04:25:26.251Z,9.681282
2023-02-22T04:26:26.197Z,9.681164
2023-02-22T04:27:26.249Z,9.681576
2023-02-22T04:28:26.198Z,9.681813
2023-02-22T04:29:26.249Z,9.681829
2023-02-22T04:30:26.227Z,9.681935
2023-02-22T04:31:26.232Z,9.681898
2023-02-22T04:32:26.177Z,9.681838
2023-02-22T04:33:26.155Z,9.681838
2023-02-22T04:34:26.205Z,9.681788
2023-02-22T04:35:26.164Z,9.681788
2023-02-22T04:36:26.194Z,9.681744
2023-02-22T04:37:26.149Z,9.681744
2023-02-22T04:38:26.156Z,9.681005
2023-02-22T04:39:26.184Z,9.681112
2023-02-22T04:40:26.154Z,9.681614
2023-02-22T04:41:26.132Z,9.680622
2023-02-22T04:42:26.190Z,9.681958
2023-02-22T04:43:26.114Z,9.681637
2023-02-22T04:44:26.121Z,9.682476
2023-02-22T04:45:26.118Z,9.681709
2023-02-22T04:46:26.107Z,9.681261
2023-02-22T04:47:26.121Z,9.681433
2023-02-22T04:48:26.101Z,9.680731
2023-02-22T04:49:26.072Z,9.681417
2023-02-22T04:50:26.190Z,9.681167
2023-02-22T04:51:26.146Z,9.681108
2023-02-22T04:52:26.050Z,9.681315
2023-02-22T04:53:26.082Z,9.681358
2023-02-22T04:54:26.099Z,9.681125
2023-02-22T04:55:26.097Z,9.681359
2023-02-22T04:56:26.044Z,9.681160
2023-02-22T04:57:26.060Z,9.681078
2023-02-22T04:58:26.053Z,9.681108
2023-02-22T04:59:26.013Z,9.681199
2023-02-22T05:00:26.003Z,9.681368
2023-02-22T05:01:25.996Z,9.681143
2023-02-22T05:02:26.009Z,9.681033
2023-02-22T05:03:26.014Z,9.680926
2023-02-22T05:04:26.041Z,9.680926
2023-02-22T05:05:26.021Z,9.680948
2023-02-22T05:06:25.972Z,9.680701
2023-02-22T05:07:25.973Z,9.680844
2023-02-22T05:08:25.964Z,9.680971
2023-02-22T05:09:25.969Z,9.681342
2023-02-22T05:10:25.942Z,9.681434
2023-02-22T05:11:25.944Z,9.681375
2023-02-22T05:12:25.943Z,9.681774
2023-02-22T05:13:25.954Z,9.681393
2023-02-22T05:14:25.966Z,9.681522
2023-02-22T05:15:25.901Z,9.681406
2023-02-22T05:16:25.907Z,9.681708
2023-02-22T05:17:25.895Z,9.681201
2023-02-22T05:18:25.950Z,9.680902
2023-02-22T05:19:25.895Z,9.680854
2023-02-22T05:20:25.985Z,9.681123
2023-02-22T05:21:25.934Z,9.681370
2023-02-22T05:22:25.888Z,9.681407
2023-02-22T05:23:25.916Z,9.681458
2023-02-22T05:24:25.887Z,9.681294
2023-02-22T05:25:25.864Z,9.681406
2023-02-22T05:26:26.007Z,9.681325
2023-02-22T05:27:25.841Z,9.681776
2023-02-22T05:28:25.859Z,9.681683
2023-02-22T05:29:25.860Z,9.681885
2023-02-22T05:30:25.881Z,9.681823
2023-02-22T05:31:25.923Z,9.681848
2023-02-22T05:32:32.823Z,9.681143
2023-02-22T05:33:25.801Z,9.680638
2023-02-22T05:34:25.811Z,9.680692
2023-02-22T05:35:25.777Z,9.680596
2023-02-22T05:36:25.777Z,9.680500
2023-02-22T05:37:25.795Z,9.680579
2023-02-22T05:38:25.775Z,9.681007
2023-02-22T05:39:25.747Z,9.681168
2023-02-22T05:40:25.753Z,9.680815
2023-02-22T05:41:25.759Z,9.680703
2023-02-22T05:42:25.765Z,9.680932
2023-02-22T05:43:25.734Z,9.680821
2023-02-22T05:44:25.764Z,9.680843
2023-02-22T05:45:25.726Z,9.680718
2023-02-22T05:46:25.766Z,9.680772
2023-02-22T05:47:25.730Z,9.680549
2023-02-22T05:48:25.703Z,9.680472
2023-02-22T05:49:25.722Z,9.681067
2023-02-22T05:50:25.729Z,9.680507
2023-02-22T05:51:25.708Z,9.680507
2023-02-22T05:52:25.697Z,9.680507
2023-02-22T05:53:25.688Z,9.680507
2023-02-22T05:54:25.703Z,9.680507
2023-02-22T05:55:25.663Z,9.680507
2023-02-22T05:56:25.706Z,9.680507
2023-02-22T05:57:25.663Z,9.680507
2023-02-22T05:58:25.663Z,9.680507
2023-02-22T05:59:25.678Z,9.680507
2023-02-22T06:00:25.666Z,9.680507
2023-02-22T06:01:25.630Z,9.680507
2023-02-22T06:02:25.640Z,9.680507
2023-02-22T06:03:25.667Z,9.680507
2023-02-22T06:04:25.606Z,9.680507
2023-02-22T06:05:25.601Z,9.680507
2023-02-22T06:06:25.603Z,9.680507
2023-02-22T06:07:25.588Z,9.680507
2023-02-22T06:08:25.589Z,9.680507
2023-02-22T06:09:25.595Z,9.680507
2023-02-22T06:10:25.572Z,9.680507
2023-02-22T06:11:25.577Z,9.680507
2023-02-22T06:12:25.561Z,9.680507
2023-02-22T06:13:25.543Z,9.680507
2023-02-22T06:14:25.581Z,9.680507
2023-02-22T06:15:25.559Z,9.680507
2023-02-22T06:16:25.565Z,9.680507
2023-02-22T06:17:25.525Z,9.680507
2023-02-22T06:18:25.530Z,9.680507
2023-02-22T06:19:25.534Z,9.680507
2023-02-22T06:20:25.505Z,9.680507
2023-02-22T06:21:25.525Z,9.680507
2023-02-22T06:22:25.507Z,9.680507
2023-02-22T06:23:25.495Z,9.680507
2023-02-22T06:24:25.501Z,9.680507
2023-02-22T06:25:25.496Z,9.680507
2023-02-22T06:26:25.481Z,9.680507
2023-02-22T06:27:25.487Z,9.680507
2023-02-22T06:28:25.460Z,9.680507
2023-02-22T06:29:25.459Z,9.680507
2023-02-22T06:30:25.551Z,9.680507
2023-02-22T06:31:25.502Z,9.680507
2023-02-22T06:32:25.436Z,9.680507
2023-02-22T06:33:25.437Z,9.680507
2023-02-22T06:34:25.445Z,9.680507
2023-02-22T06:35:25.445Z,9.680507
2023-02-22T06:36:25.433Z,9.680507
2023-02-22T06:37:25.400Z,9.680507
2023-02-22T06:38:25.426Z,9.680507
2023-02-22T06:39:25.400Z,9.680507
2023-02-22T06:40:25.416Z,9.680507
2023-02-22T06:41:25.384Z,9.680507
2023-02-22T06:42:25.490Z,9.680507
2023-02-22T06:43:25.370Z,9.680507
2023-02-22T06:44:25.401Z,9.680507
2023-02-22T06:45:25.415Z,9.680507
2023-02-22T06:46:25.381Z,9.680507
2023-02-22T06:47:25.347Z,9.680507
2023-02-22T06:48:25.339Z,9.680507
2023-02-22T06:49:25.361Z,9.680507
2023-02-22T06:50:25.354Z,9.680507
2023-02-22T06:51:25.348Z,9.680507
2023-02-22T06:52:25.317Z,9.680507
2023-02-22T06:53:25.308Z,9.680507
2023-02-22T06:54:25.318Z,9.680507
2023-02-22T06:55:25.339Z,9.680507
2023-02-22T06:56:25.282Z,9.680507
2023-02-22T06:57:25.288Z,9.680507
2023-02-22T06:58:25.274Z,9.680507
2023-02-22T06:59:25.274Z,9.680507
2023-02-22T07:00:25.289Z,9.680507
2023-02-22T07:01:25.252Z,9.680507
2023-02-22T07:02:25.255Z,9.680507
2023-02-22T07:03:25.315Z,9.680507
2023-02-22T07:04:25.241Z,9.680507
2023-02-22T07:05:25.240Z,9.680507
2023-02-22T07:06:25.255Z,9.680507
2023-02-22T07:07:25.250Z,9.680507
2023-02-22T07:08:25.232Z,9.680689
2023-02-22T07:09:25.207Z,9.680190
2023-02-22T07:10:25.263Z,9.679623
2023-02-22T07:11:25.203Z,9.680545
2023-02-22T07:12:25.194Z,9.680547
2023-02-22T07:13:25.204Z,9.680627
2023-02-22T07:14:25.205Z,9.680925
2023-02-22T07:15:25.199Z,9.680896
2023-02-22T07:16:25.220Z,9.681061
2023-02-22T07:17:25.176Z,9.680789
2023-02-22T07:18:25.197Z,9.680947
2023-02-22T07:19:25.172Z,9.680929
2023-02-22T07:20:25.170Z,9.681506
2023-02-22T07:21:25.158Z,9.681728
2023-02-22T07:22:25.161Z,9.681302
2023-02-22T07:23:25.135Z,9.681110
2023-02-22T07:24:25.153Z,9.680964
2023-02-22T07:25:25.133Z,9.681228
2023-02-22T07:26:25.131Z,9.681402
2023-02-22T07:27:25.137Z,9.681402
2023-02-22T07:28:25.105Z,9.681402
2023-02-22T07:29:25.118Z,9.681402
2023-02-22T07:30:25.231Z,9.681402
2023-02-22T07:31:25.100Z,9.681402
2023-02-22T07:32:25.228Z,9.681402
2023-02-22T07:33:25.096Z,9.680650
2023-02-22T07:34:25.087Z,9.680407
2023-02-22T07:35:25.082Z,9.680872
2023-02-22T07:36:25.121Z,9.681090
2023-02-22T07:37:25.073Z,9.681102
2023-02-22T07:38:25.100Z,9.680502
2023-02-22T07:39:25.063Z,9.680500
2023-02-22T07:40:25.074Z,9.680883
2023-02-22T07:41:25.061Z,9.680781
2023-02-22T07:42:25.038Z,9.680931
2023-02-22T07:43:25.053Z,9.680659
2023-02-22T07:44:25.020Z,9.680817
2023-02-22T07:45:25.050Z,9.680698
2023-02-22T07:46:25.013Z,9.680455
2023-02-22T07:47:25.003Z,9.680404
2023-02-22T07:48:24.989Z,9.680473
2023-02-22T07:49:25.007Z,9.680593
2023-02-22T07:50:24.981Z,9.680593
2023-02-22T07:51:24.981Z,9.681046
2023-02-22T07:52:24.963Z,9.680552
2023-02-22T07:53:25.855Z,9.680119
2023-02-22T07:54:24.975Z,9.680119
2023-02-22T07:55:24.986Z,9.680848
2023-02-22T07:56:24.971Z,9.681389
2023-02-22T07:57:24.988Z,9.680927
2023-02-22T07:58:24.958Z,9.680869
2023-02-22T07:59:24.917Z,9.681091
2023-02-22T08:00:24.929Z,9.681091
2023-02-22T08:01:24.940Z,9.681149
2023-02-22T08:02:24.949Z,9.681001
2023-02-22T08:03:24.956Z,9.681385
2023-02-22T08:04:24.903Z,9.681468
2023-02-22T08:05:24.898Z,9.681079
2023-02-22T08:06:24.908Z,9.681235
2023-02-22T08:07:24.896Z,9.680488
2023-02-22T08:08:24.920Z,9.680704
2023-02-22T08:09:24.897Z,9.681594
2023-02-22T08:10:24.864Z,9.681164
2023-02-22T08:11:24.856Z,9.681164
2023-02-22T08:12:24.847Z,9.680796
2023-02-22T08:13:24.836Z,9.680796
2023-02-22T08:14:24.847Z,9.680796
2023-02-22T08:15:24.868Z,9.680796
2023-02-22T08:16:24.866Z,9.680796
2023-02-22T08:17:24.872Z,9.680796
2023-02-22T08:18:24.822Z,9.680796
2023-02-22T08:19:24.808Z,9.680796
2023-02-22T08:20:24.825Z,9.680796
2023-02-22T08:21:24.825Z,9.681456
2023-02-22T08:22:24.791Z,9.681482
2023-02-22T08:23:24.792Z,9.681454
2023-02-22T08:24:24.765Z,9.681076
2023-02-22T08:25:24.768Z,9.681428
2023-02-22T08:26:24.755Z,9.681464
2023-02-22T08:27:24.755Z,9.681396
2023-02-22T08:28:24.759Z,9.681597
2023-02-22T08:29:24.754Z,9.681767
2023-02-22T08:30:24.761Z,9.681578
2023-02-22T08:31:24.775Z,9.681571
2023-02-22T08:32:24.880Z,9.681100
2023-02-22T08:33:24.834Z,9.681166
2023-02-22T08:34:24.707Z,9.681026
2023-02-22T08:35:24.722Z,9.681024
2023-02-22T08:36:24.712Z,9.681056
2023-02-22T08:37:24.706Z,9.681284
2023-02-22T08:38:24.724Z,9.681370
2023-02-22T08:39:24.688Z,9.681596
2023-02-22T08:40:24.693Z,9.681499
2023-02-22T08:41:24.659Z,9.681387
2023-02-22T08:42:24.689Z,9.681196
2023-02-22T08:43:24.693Z,9.680851
2023-02-22T08:44:24.655Z,9.681010
2023-02-22T08:45:24.631Z,9.681395
2023-02-22T08:46:24.666Z,9.681175
2023-02-22T08:47:24.631Z,9.681648
2023-02-22T08:48:24.647Z,9.681025
2023-02-22T08:49:24.615Z,9.681465
2023-02-22T08:50:24.717Z,9.681539
2023-02-22T08:51:26.247Z,9.681520
2023-02-22T08:52:24.607Z,9.681575
2023-02-22T08:53:24.603Z,9.681387
2023-02-22T08:54:24.608Z,9.681095
2023-02-22T08:55:24.593Z,9.680978
2023-02-22T08:56:24.593Z,9.680649
2023-02-22T08:57:24.587Z,9.680611
2023-02-22T08:58:24.584Z,9.681033
2023-02-22T08:59:24.585Z,9.681233
2023-02-22T09:00:24.549Z,9.681583
2023-02-22T09:01:32.701Z,9.681561
2023-02-22T09:02:24.638Z,9.681253
2023-02-22T09:03:24.605Z,9.681197
2023-02-22T09:04:24.527Z,9.681190
2023-02-22T09:05:24.539Z,9.681149
2023-02-22T09:06:24.505Z,9.681183
2023-02-22T09:07:24.521Z,9.681000
2023-02-22T09:08:24.527Z,9.680954
2023-02-22T09:09:24.558Z,9.681233
2023-02-22T09:10:24.489Z,9.681245
2023-02-22T09:11:24.476Z,9.681212
2023-02-22T09:12:24.485Z,9.681266
2023-02-22T09:13:24.466Z,9.681173
2023-02-22T09:14:24.502Z,9.680926
2023-02-22T09:15:24.505Z,9.681109
2023-02-22T09:16:24.529Z,9.680907
2023-02-22T09:17:24.434Z,9.681080
2023-02-22T09:18:26.881Z,9.681171
2023-02-22T09:19:24.452Z,9.681266
2023-02-22T09:20:24.490Z,9.681144
2023-02-22T09:21:24.418Z,9.681211
2023-02-22T09:22:24.440Z,9.681241
2023-02-22T09:23:24.420Z,9.681143
2023-02-22T09:24:24.429Z,9.681246
2023-02-22T09:25:24.432Z,9.681160
2023-02-22T09:26:24.411Z,9.681097
2023-02-22T09:27:24.430Z,9.681008
2023-02-22T09:28:24.374Z,9.681120
2023-02-22T09:29:24.381Z,9.681227
2023-02-22T09:30:24.578Z,9.681027
2023-02-22T09:31:24.546Z,9.680974
2023-02-22T09:32:24.542Z,9.681213
2023-02-22T09:33:24.399Z,9.681133
2023-02-22T09:34:24.375Z,9.680989
2023-02-22T09:35:24.348Z,9.681097
2023-02-22T09:36:26.119Z,9.680773
2023-02-22T09:37:24.338Z,9.680814
2023-02-22T09:38:24.325Z,9.680923
2023-02-22T09:39:24.482Z,9.681234
2023-02-22T09:40:24.299Z,9.681391
2023-02-22T09:41:24.339Z,9.680922
2023-02-22T09:42:24.298Z,9.681057
2023-02-22T09:43:24.285Z,9.681029
2023-02-22T09:44:24.280Z,9.681020
2023-02-22T09:45:24.297Z,9.681021
2023-02-22T09:46:24.268Z,9.681097
2023-02-22T09:47:24.418Z,9.681171
2023-02-22T09:48:24.292Z,9.680891
2023-02-22T09:49:24.265Z,9.680901
2023-02-22T09:50:24.292Z,9.681076
2023-02-22T09:51:24.255Z,9.681104
2023-02-22T09:52:24.261Z,9.681189
2023-02-22T09:53:26.358Z,9.681089
2023-02-22T09:54:24.233Z,9.681084
2023-02-22T09:55:24.233Z,9.681190
2023-02-22T09:56:24.237Z,9.680756
2023-02-22T09:57:24.205Z,9.681086
2023-02-22T09:58:24.236Z,9.681240
2023-02-22T09:59:24.223Z,9.681303
2023-02-22T10:00:24.216Z,9.681259
2023-02-22T10:01:24.169Z,9.681024
2023-02-22T10:02:24.241Z,9.681347
2023-02-22T10:03:24.215Z,9.681215
2023-02-22T10:04:24.205Z,9.680984
2023-02-22T10:05:24.198Z,9.681221
2023-02-22T10:06:24.165Z,9.681365
2023-02-22T10:07:24.188Z,9.681489
2023-02-22T10:08:24.196Z,9.681360
2023-02-22T10:09:24.140Z,9.681353
2023-02-22T10:10:24.152Z,9.681302
2023-02-22T10:11:24.125Z,9.681277
2023-02-22T10:12:24.112Z,9.681263
2023-02-22T10:13:24.119Z,9.681022
2023-02-22T10:14:24.128Z,9.680984
2023-02-22T10:15:24.107Z,9.681136
2023-02-22T10:16:24.136Z,9.681056
2023-02-22T10:17:24.095Z,9.680861
2023-02-22T10:18:24.066Z,9.680640
2023-02-22T10:19:24.093Z,9.681060
2023-02-22T10:20:24.089Z,9.681274
2023-02-22T10:21:24.095Z,9.681086
2023-02-22T10:22:24.059Z,9.681302
2023-02-22T10:23:24.040Z,9.681138
2023-02-22T10:24:24.052Z,9.681051
2023-02-22T10:25:24.045Z,9.681245
2023-02-22T10:26:24.074Z,9.681101
2023-02-22T10:27:24.012Z,9.680826
2023-02-22T10:28:24.032Z,9.680929
2023-02-22T10:29:24.007Z,9.681225
2023-02-22T10:30:25.593Z,9.681205
2023-02-22T10:31:24.100Z,9.681293
2023-02-22T10:32:24.059Z,9.681385
2023-02-22T10:33:23.985Z,9.681319
2023-02-22T10:34:23.964Z,9.681166
2023-02-22T10:35:23.969Z,9.681164
2023-02-22T10:36:23.977Z,9.681039
2023-02-22T10:37:24.061Z,9.681334
2023-02-22T10:38:23.961Z,9.681396
2023-02-22T10:39:24.007Z,9.681306
2023-02-22T10:40:23.950Z,9.681410
2023-02-22T10:41:23.963Z,9.681305
2023-02-22T10:42:23.940Z,9.681244
2023-02-22T10:43:23.974Z,9.681515
2023-02-22T10:44:23.920Z,9.681479
2023-02-22T10:45:23.933Z,9.681130
2023-02-22T10:46:23.921Z,9.681370
2023-02-22T10:47:23.901Z,9.681476
2023-02-22T10:48:23.972Z,9.681300
2023-02-22T10:49:23.898Z,9.681955
2023-02-22T10:50:23.904Z,9.681446
2023-02-22T10:51:23.863Z,9.681607
2023-02-22T10:52:23.881Z,9.681145
2023-02-22T10:53:23.877Z,9.680953
2023-02-22T10:54:23.897Z,9.681062
2023-02-22T10:55:23.849Z,9.681034
2023-02-22T10:56:23.865Z,9.680981
2023-02-22T10:57:23.834Z,9.681260
2023-02-22T10:58:23.829Z,9.681547
2023-02-22T10:59:25.612Z,9.681856
2023-02-22T11:00:23.845Z,9.681749
2023-02-22T11:01:23.914Z,9.681448
2023-02-22T11:02:23.814Z,9.681410
2023-02-22T11:03:23.815Z,9.681322
2023-02-22T11:04:23.792Z,9.681533
2023-02-22T11:05:23.867Z,9.681396
2023-02-22T11:06:23.776Z,9.681163
2023-02-22T11:07:23.798Z,9.681400
2023-02-22T11:08:23.791Z,9.682060
2023-02-22T11:09:23.764Z,9.681847
2023-02-22T11:10:23.761Z,9.681226
2023-02-22T11:11:23.774Z,9.681141
2023-02-22T11:12:23.751Z,9.680933
2023-02-22T11:13:23.747Z,9.680450
2023-02-22T11:14:23.745Z,9.680927
2023-02-22T11:15:23.726Z,9.681245
2023-02-22T11:16:23.750Z,9.681043
2023-02-22T11:17:23.753Z,9.680890
2023-02-22T11:18:23.702Z,9.681022
2023-02-22T11:19:23.679Z,9.681010
2023-02-22T11:20:23.692Z,9.680999
2023-02-22T11:21:23.709Z,9.680893
2023-02-22T11:22:23.671Z,9.680505
2023-02-22T11:23:23.721Z,9.680769
2023-02-22T11:24:23.681Z,9.681167
2023-02-22T11:25:23.713Z,9.680742
2023-02-22T11:26:23.658Z,9.681174
2023-02-22T11:27:23.631Z,9.681052
2023-02-22T11:28:23.632Z,9.680832
2023-02-22T11:29:23.676Z,9.680858
2023-02-22T11:30:23.659Z,9.681091
2023-02-22T11:31:23.816Z,9.681015
2023-02-22T11:32:23.645Z,9.680847
2023-02-22T11:33:31.791Z,9.681130
2023-02-22T11:34:23.608Z,9.681147
2023-02-22T11:35:23.624Z,9.680987
2023-02-22T11:36:23.585Z,9.680736
2023-02-22T11:37:23.565Z,9.680768
2023-02-22T11:38:23.591Z,9.681137
2023-02-22T11:39:23.563Z,9.681347
2023-02-22T11:40:23.568Z,9.681145
2023-02-22T11:41:23.537Z,9.681003
2023-02-22T11:42:23.546Z,9.680845
2023-02-22T11:43:23.527Z,9.680955
2023-02-22T11:44:23.515Z,9.681077
2023-02-22T11:45:23.506Z,9.681369
2023-02-22T11:46:23.546Z,9.680963
2023-02-22T11:47:23.476Z,9.680845
2023-02-22T11:48:23.496Z,9.680610
2023-02-22T11:49:23.475Z,9.680580
2023-02-22T11:50:23.500Z,9.680780
2023-02-22T11:51:23.484Z,9.680642
2023-02-22T11:52:25.053Z,9.680331
2023-02-22T11:53:23.451Z,9.681030
2023-02-22T11:54:23.469Z,9.680756
2023-02-22T11:55:36.322Z,9.680793
2023-02-22T11:56:36.980Z,9.680928
2023-02-22T11:57:24.409Z,9.681310
2023-02-22T11:58:23.414Z,9.681335
2023-02-22T11:59:23.421Z,9.681088
2023-02-22T12:00:23.421Z,9.680984
2023-02-22T12:01:23.389Z,9.680957
2023-02-22T12:02:23.421Z,9.680747
2023-02-22T12:03:23.424Z,9.680785
2023-02-22T12:04:23.413Z,9.681145
2023-02-22T12:05:23.368Z,9.681306
2023-02-22T12:06:23.416Z,9.681021
2023-02-22T12:07:23.351Z,9.681415
2023-02-22T12:08:23.357Z,9.681307
2023-02-22T12:09:23.337Z,9.680776
2023-02-22T12:10:23.328Z,9.680826
2023-02-22T12:11:23.340Z,9.681377
2023-02-22T12:12:23.329Z,9.680862
2023-02-22T12:13:23.289Z,9.681303
2023-02-22T12:14:23.286Z,9.681106
2023-02-22T12:15:23.288Z,9.681454
2023-02-22T12:16:23.286Z,9.681326
2023-02-22T12:17:23.296Z,9.680850
2023-02-22T12:18:23.274Z,9.680826
2023-02-22T12:19:23.267Z,9.681329
2023-02-22T12:20:23.241Z,9.681842
2023-02-22T12:21:23.281Z,9.681475
2023-02-22T12:22:23.233Z,9.681247
2023-02-22T12:23:23.225Z,9.680700
2023-02-22T12:24:23.215Z,9.680973
2023-02-22T12:25:23.227Z,9.681146
2023-02-22T12:26:23.205Z,9.681469
2023-02-22T12:27:23.209Z,9.681248
2023-02-22T12:28:25.118Z,9.681083
2023-02-22T12:29:23.186Z,9.680970
2023-02-22T12:30:23.192Z,9.681346
2023-02-22T12:31:23.308Z,9.681196
2023-02-22T12:32:23.305Z,9.681325